Time;durP1;ratioP1;P1;durP2;ratioP2;P2;SDS_P1;SDS_P2;PMS_P1;PMS_P2;Temp;Humidity;BMP_temperature;BMP_pressure;BME280_temperature;BME280_humidity;BME280_pressure;Samples;Min_cycle;Max_cycle;Signal;HPM_P1;HPM_P2
2022/07/21 00:01:06;;;;;;;4.23;3.27;;;19.30;99.90;;;;;;5034923;28;20247;-41
2022/07/21 00:03:32;;;;;;;2.83;2.63;;;19.30;99.90;;;;;;5035353;28;20180;-40
2022/07/21 00:05:57;;;;;;;3.70;2.97;;;19.30;99.90;;;;;;5034918;28;20681;-41
2022/07/21 00:08:23;;;;;;;3.23;2.90;;;19.30;99.90;;;;;;5034928;28;20177;-39
2022/07/21 00:10:49;;;;;;;4.80;2.90;;;19.30;99.90;;;;;;5034889;28;20203;-40
2022/07/21 00:13:14;;;;;;;6.00;3.23;;;19.30;99.90;;;;;;5033919;28;20173;-39
2022/07/21 00:15:40;;;;;;;3.13;2.83;;;19.30;99.90;;;;;;5034850;28;20675;-41
2022/07/21 00:18:06;;;;;;;4.17;2.97;;;19.40;99.90;;;;;;5034732;28;20259;-43
2022/07/21 00:20:32;;;;;;;3.30;3.00;;;19.40;99.90;;;;;;5035553;28;20193;-46
2022/07/21 00:22:58;;;;;;;5.40;3.33;;;19.40;99.90;;;;;;5036166;28;20189;-44
2022/07/21 00:25:24;;;;;;;3.57;3.17;;;19.40;99.90;;;;;;5018205;28;20212;-43
2022/07/21 00:27:50;;;;;;;4.00;3.10;;;19.40;99.90;;;;;;5036232;28;20177;-46
2022/07/21 00:30:16;;;;;;;3.60;3.03;;;19.40;99.90;;;;;;5036038;28;20201;-46
2022/07/21 00:32:42;;;;;;;4.23;2.87;;;19.40;99.90;;;;;;5035812;28;20260;-44
2022/07/21 00:35:09;;;;;;;3.77;3.30;;;19.30;99.90;;;;;;5035547;28;20177;-45
2022/07/21 00:37:35;;;;;;;3.50;3.17;;;19.30;99.90;;;;;;5035641;28;20177;-45
2022/07/21 00:40:02;;;;;;;4.63;3.37;;;19.40;99.90;;;;;;5035463;28;20208;-45
2022/07/21 00:42:30;;;;;;;4.30;3.37;;;19.30;99.90;;;;;;5035437;28;20177;-45
2022/07/21 00:44:57;;;;;;;3.70;3.10;;;19.30;99.90;;;;;;5034882;28;20235;-42
2022/07/21 00:47:25;;;;;;;4.47;3.90;;;19.30;99.90;;;;;;5034451;28;20181;-41
2022/07/21 00:49:51;;;;;;;3.27;2.97;;;19.30;99.90;;;;;;5034847;28;20201;-42
2022/07/21 00:52:17;;;;;;;5.57;3.63;;;19.20;99.90;;;;;;5035117;28;20189;-41
2022/07/21 00:54:44;;;;;;;3.67;3.30;;;19.20;99.90;;;;;;5036264;28;20231;-40
2022/07/21 00:57:11;;;;;;;3.70;3.40;;;19.20;99.90;;;;;;5035653;28;20189;-40
2022/07/21 00:59:37;;;;;;;4.70;3.60;;;19.10;99.90;;;;;;5034590;28;20551;-40
2022/07/21 01:02:04;;;;;;;5.10;4.00;;;19.10;99.90;;;;;;5032943;28;20275;-39
2022/07/21 01:04:29;;;;;;;4.40;4.00;;;19.10;99.90;;;;;;5034361;28;20212;-38
2022/07/21 01:06:56;;;;;;;5.87;4.10;;;19.10;99.90;;;;;;5034156;28;20176;-39
2022/07/21 01:09:22;;;;;;;7.00;4.20;;;19.10;99.90;;;;;;5032706;28;20574;-38
2022/07/21 01:11:48;;;;;;;4.90;4.40;;;19.10;99.90;;;;;;5034298;28;20188;-39
2022/07/21 01:14:14;;;;;;;5.77;4.67;;;19.10;99.90;;;;;;5034306;28;20608;-38
2022/07/21 01:16:41;;;;;;;5.17;4.40;;;19.10;99.90;;;;;;5033880;28;20209;-40
2022/07/21 01:19:07;;;;;;;6.00;4.70;;;19.10;99.90;;;;;;5033866;28;20181;-39
2022/07/21 01:21:34;;;;;;;5.40;4.63;;;19.00;99.90;;;;;;5034009;28;20199;-37
2022/07/21 01:24:01;;;;;;;7.50;4.60;;;19.00;99.90;;;;;;5033731;28;20172;-39
2022/07/21 01:26:28;;;;;;;6.03;4.53;;;19.00;99.90;;;;;;5033695;28;20173;-38
2022/07/21 01:28:54;;;;;;;4.87;4.20;;;19.00;99.90;;;;;;5032511;28;20199;-40
2022/07/21 01:31:20;;;;;;;5.10;4.43;;;19.00;99.90;;;;;;5033786;28;20208;-37
2022/07/21 01:33:46;;;;;;;4.90;4.00;;;19.00;99.90;;;;;;5033656;28;20188;-42
2022/07/21 01:36:11;;;;;;;9.73;4.57;;;19.00;99.90;;;;;;5033488;28;20181;-40
2022/07/21 01:41:31;;;;;;;7.10;4.77;;;19.00;99.90;;;;;;5033433;28;20577;-42
2022/07/21 01:44:02;;;;;;;5.67;4.47;;;19.00;99.90;;;;;;5033554;28;20172;-39
2022/07/21 01:46:30;;;;;;;6.40;4.63;;;19.00;99.90;;;;;;5033316;28;20244;-41
2022/07/21 01:48:56;;;;;;;8.03;4.93;;;19.10;99.90;;;;;;5033679;28;20181;-40
2022/07/21 01:51:22;;;;;;;6.90;4.90;;;19.10;99.90;;;;;;5033278;28;20287;-41
2022/07/21 01:53:47;;;;;;;7.53;4.70;;;19.10;99.90;;;;;;5033418;28;20255;-41
2022/07/21 01:56:13;;;;;;;9.43;4.80;;;19.10;99.90;;;;;;5037255;28;20560;-39
2022/07/21 01:58:39;;;;;;;7.70;4.50;;;19.10;99.90;;;;;;5037324;28;20181;-43
2022/07/21 02:01:04;;;;;;;6.47;4.60;;;19.00;99.90;;;;;;5037663;28;20691;-40
2022/07/21 02:03:30;;;;;;;6.23;4.57;;;19.00;99.90;;;;;;5037378;28;20684;-41
2022/07/21 02:06:04;;;;;;;6.13;5.13;;;19.10;99.90;;;;;;5038006;28;20294;-41
2022/07/21 02:08:29;;;;;;;6.77;4.90;;;19.00;99.90;;;;;;5037374;28;20220;-40
2022/07/21 02:10:55;;;;;;;5.73;4.87;;;19.00;99.90;;;;;;5037041;28;20250;-39
2022/07/21 02:13:21;;;;;;;8.33;5.10;;;19.00;99.90;;;;;;5037670;28;20252;-40
2022/07/21 02:15:47;;;;;;;6.87;5.03;;;19.00;99.90;;;;;;5037441;28;20212;-41
2022/07/21 02:18:13;;;;;;;10.47;5.37;;;19.00;99.90;;;;;;5037102;28;20189;-40
2022/07/21 02:20:38;;;;;;;8.67;5.63;;;19.00;99.90;;;;;;5038101;28;20205;-41
2022/07/21 02:23:04;;;;;;;9.23;5.37;;;19.00;99.90;;;;;;5037371;28;20207;-41
2022/07/21 02:25:29;;;;;;;9.73;6.00;;;19.00;99.90;;;;;;5038237;28;20216;-41
2022/07/21 02:27:55;;;;;;;10.20;5.80;;;18.90;99.90;;;;;;5040626;28;20220;-41
2022/07/21 02:30:21;;;;;;;9.23;5.93;;;19.00;99.90;;;;;;5039497;28;20208;-39
2022/07/21 02:32:46;;;;;;;7.03;5.77;;;18.90;99.90;;;;;;5040976;28;20204;-44
2022/07/21 02:35:12;;;;;;;8.07;5.10;;;18.90;99.90;;;;;;5042223;28;20191;-44
2022/07/21 02:37:38;;;;;;;8.77;5.33;;;18.90;99.90;;;;;;5040145;28;20189;-45
2022/07/21 02:40:05;;;;;;;6.97;5.70;;;18.90;99.90;;;;;;5039466;28;20677;-44
2022/07/21 02:42:30;;;;;;;10.97;5.90;;;18.90;99.90;;;;;;5039447;28;20192;-45
2022/07/21 02:44:56;;;;;;;6.60;6.00;;;18.90;99.90;;;;;;5039028;28;20208;-45
2022/07/21 02:47:22;;;;;;;10.10;6.03;;;18.90;99.90;;;;;;5038788;28;20181;-45
2022/07/21 02:49:48;;;;;;;8.13;6.07;;;18.90;99.90;;;;;;5040276;28;20207;-45
2022/07/21 02:52:14;;;;;;;10.63;5.77;;;18.90;99.90;;;;;;5037531;28;20656;-45
2022/07/21 02:54:39;;;;;;;8.93;6.13;;;18.90;99.90;;;;;;5037935;28;20223;-45
2022/07/21 02:57:05;;;;;;;10.13;6.00;;;18.80;99.90;;;;;;5037836;28;20181;-40
2022/07/21 02:59:30;;;;;;;7.47;5.53;;;18.90;99.90;;;;;;5036431;28;20288;-39
2022/07/21 03:01:56;;;;;;;10.23;5.90;;;18.80;99.90;;;;;;5036171;28;20283;-39
2022/07/21 03:04:22;;;;;;;10.67;5.90;;;18.90;99.90;;;;;;5036119;28;20204;-40
2022/07/21 03:06:47;;;;;;;10.77;6.43;;;18.90;99.90;;;;;;5034987;28;20231;-38
2022/07/21 03:09:13;;;;;;;10.20;5.97;;;18.90;99.90;;;;;;5036291;28;20185;-42
2022/07/21 03:11:39;;;;;;;8.07;5.87;;;18.80;99.90;;;;;;5035978;28;20173;-40
2022/07/21 03:14:04;;;;;;;10.13;6.37;;;18.80;99.90;;;;;;5036335;28;20384;-41
2022/07/21 03:16:30;;;;;;;9.00;5.73;;;18.80;99.90;;;;;;5034666;28;20186;-40
2022/07/21 03:18:56;;;;;;;7.60;6.17;;;18.80;99.90;;;;;;5036236;28;20589;-40
2022/07/21 03:21:22;;;;;;;6.33;5.73;;;18.80;99.90;;;;;;5035956;28;20207;-39
2022/07/21 03:23:47;;;;;;;7.00;5.73;;;18.80;99.90;;;;;;5035827;28;20189;-40
2022/07/21 03:26:14;;;;;;;7.13;5.43;;;18.80;99.90;;;;;;5036207;28;20221;-39
2022/07/21 03:28:40;;;;;;;6.03;5.33;;;18.80;99.90;;;;;;5035999;28;20223;-40
2022/07/21 03:31:06;;;;;;;11.77;6.60;;;18.80;99.90;;;;;;5035884;28;20606;-38
2022/07/21 03:33:31;;;;;;;7.83;5.80;;;18.70;99.90;;;;;;5035930;28;20235;-40
2022/07/21 03:36:00;;;;;;;8.77;5.90;;;18.70;99.90;;;;;;5035920;28;20181;-37
2022/07/21 03:38:26;;;;;;;6.80;5.63;;;18.70;99.90;;;;;;5035791;28;20185;-39
2022/07/21 03:40:52;;;;;;;7.90;6.13;;;18.70;99.90;;;;;;5035469;28;20212;-40
2022/07/21 03:43:18;;;;;;;7.40;6.20;;;18.70;99.90;;;;;;5035479;28;20181;-39
2022/07/21 03:45:44;;;;;;;8.00;5.53;;;18.70;99.90;;;;;;5035419;28;20212;-38
2022/07/21 03:48:11;;;;;;;6.93;5.73;;;18.60;99.90;;;;;;5035728;28;20633;-38
2022/07/21 03:50:40;;;;;;;8.53;5.50;;;18.60;99.90;;;;;;5035268;28;20246;-38
2022/07/21 03:53:07;;;;;;;7.60;6.00;;;18.60;99.90;;;;;;5035496;28;20311;-39
2022/07/21 03:55:33;;;;;;;8.63;6.10;;;18.70;99.90;;;;;;5035616;28;20640;-39
2022/07/21 03:58:01;;;;;;;12.43;6.30;;;18.60;99.90;;;;;;5035610;28;20552;-39
2022/07/21 04:00:36;;;;;;;10.00;6.20;;;18.70;99.90;;;;;;5035326;28;20196;-40
2022/07/21 04:03:02;;;;;;;7.73;6.43;;;18.60;99.90;;;;;;5035408;28;20175;-40
2022/07/21 04:05:28;;;;;;;11.03;6.37;;;18.70;99.90;;;;;;5035119;28;20588;-38
2022/07/21 04:07:55;;;;;;;7.63;6.13;;;18.70;99.90;;;;;;5035171;28;20187;-42
2022/07/21 04:10:24;;;;;;;8.60;6.20;;;18.70;99.90;;;;;;5035061;28;20205;-41
2022/07/21 04:12:50;;;;;;;9.00;6.40;;;18.70;99.90;;;;;;5035289;28;20235;-43
2022/07/21 04:15:15;;;;;;;7.80;6.63;;;18.70;99.90;;;;;;5035016;28;20189;-40
2022/07/21 04:17:41;;;;;;;8.43;6.10;;;18.70;99.90;;;;;;5034436;28;20193;-39
2022/07/21 04:20:08;;;;;;;9.17;6.80;;;18.70;99.90;;;;;;5035002;28;20205;-41
2022/07/21 04:22:34;;;;;;;9.53;6.97;;;18.70;99.90;;;;;;5034691;28;20197;-39
2022/07/21 04:25:00;;;;;;;13.07;6.87;;;18.70;99.90;;;;;;5035192;28;20251;-42
2022/07/21 04:27:26;;;;;;;8.37;6.57;;;18.60;99.90;;;;;;5035902;28;20188;-40
2022/07/21 04:29:52;;;;;;;8.83;6.60;;;18.60;99.90;;;;;;5035969;28;20201;-41
2022/07/21 04:32:18;;;;;;;8.73;6.73;;;18.60;99.90;;;;;;5036084;28;20238;-41
2022/07/21 04:34:43;;;;;;;7.63;6.43;;;18.60;99.90;;;;;;5036744;28;20649;-42
2022/07/21 04:37:09;;;;;;;9.73;7.07;;;18.60;99.90;;;;;;5038789;28;20204;-41
2022/07/21 04:39:35;;;;;;;9.10;6.63;;;18.60;99.90;;;;;;5039200;28;20203;-42
2022/07/21 04:42:00;;;;;;;9.47;6.43;;;18.70;99.90;;;;;;5037798;28;20330;-44
2022/07/21 04:44:26;;;;;;;9.13;6.43;;;18.60;99.90;;;;;;5034389;28;20216;-43
2022/07/21 04:46:51;;;;;;;8.90;7.07;;;18.60;99.90;;;;;;5035140;28;20177;-43
2022/07/21 04:49:17;;;;;;;12.37;6.60;;;18.60;99.90;;;;;;5034390;28;20177;-39
2022/07/21 04:51:43;;;;;;;9.40;6.50;;;18.70;99.90;;;;;;5034210;28;20206;-42
2022/07/21 04:54:09;;;;;;;9.93;6.83;;;18.60;99.90;;;;;;5034181;28;20190;-41
2022/07/21 04:56:34;;;;;;;9.83;7.07;;;18.70;99.90;;;;;;5034304;28;20204;-42
2022/07/21 04:59:01;;;;;;;9.23;6.83;;;18.70;99.90;;;;;;5034033;28;20222;-43
2022/07/21 05:01:27;;;;;;;9.53;7.40;;;18.80;99.90;;;;;;5033998;28;20268;-42
2022/07/21 05:03:52;;;;;;;13.83;7.23;;;18.80;99.90;;;;;;5033945;28;20224;-42
2022/07/21 05:06:18;;;;;;;11.93;7.27;;;18.80;99.90;;;;;;5034143;28;20216;-41
2022/07/21 05:08:44;;;;;;;9.73;7.23;;;18.80;99.90;;;;;;5033919;28;20181;-43
2022/07/21 05:11:09;;;;;;;9.17;7.83;;;18.80;99.90;;;;;;5034068;28;20239;-42
2022/07/21 05:13:35;;;;;;;7.77;6.73;;;18.80;99.90;;;;;;5033856;28;20173;-40
2022/07/21 05:16:01;;;;;;;9.80;7.77;;;18.90;99.90;;;;;;5033818;28;20165;-43
2022/07/21 05:18:26;;;;;;;10.33;6.70;;;18.90;99.90;;;;;;5032582;28;20662;-42
2022/07/21 05:20:52;;;;;;;10.63;6.93;;;18.90;99.90;;;;;;5034181;28;20710;-44
2022/07/21 05:23:18;;;;;;;10.07;6.63;;;18.90;99.90;;;;;;5033621;28;20204;-43
2022/07/21 05:25:43;;;;;;;10.73;6.70;;;19.00;99.90;;;;;;5033634;28;20235;-42
2022/07/21 05:28:09;;;;;;;10.13;6.33;;;19.10;99.90;;;;;;5033604;28;20181;-43
2022/07/21 05:30:35;;;;;;;10.33;6.67;;;19.10;99.90;;;;;;5031483;28;20205;-43
2022/07/21 05:33:01;;;;;;;7.70;6.93;;;19.10;99.90;;;;;;5033709;28;20184;-43
2022/07/21 05:35:26;;;;;;;8.47;6.93;;;19.20;99.90;;;;;;5036685;28;20538;-43
2022/07/21 05:37:52;;;;;;;10.17;6.67;;;19.20;99.90;;;;;;5035507;28;20188;-44
2022/07/21 05:40:17;;;;;;;9.43;6.73;;;19.30;99.90;;;;;;5035158;28;20212;-41
2022/07/21 05:42:43;;;;;;;12.30;7.13;;;19.30;99.90;;;;;;5034521;28;20238;-43
2022/07/21 05:45:09;;;;;;;8.93;6.50;;;19.40;99.90;;;;;;5032705;28;20205;-42
2022/07/21 05:47:35;;;;;;;10.23;6.80;;;19.40;99.90;;;;;;5033725;28;20196;-43
2022/07/21 05:50:01;;;;;;;9.07;7.10;;;19.50;99.90;;;;;;5033341;28;20197;-40
2022/07/21 05:52:26;;;;;;;7.70;6.70;;;19.50;99.90;;;;;;5033293;28;20204;-41
2022/07/21 05:54:52;;;;;;;16.67;7.33;;;19.60;99.90;;;;;;5033311;28;20637;-43
2022/07/21 05:57:18;;;;;;;10.20;7.23;;;19.60;99.90;;;;;;5033522;28;20708;-41
2022/07/21 05:59:46;;;;;;;9.80;6.97;;;19.70;99.90;;;;;;5033347;28;20282;-41
2022/07/21 06:02:12;;;;;;;12.13;6.53;;;19.80;99.90;;;;;;5033287;28;20195;-40
2022/07/21 06:04:38;;;;;;;10.07;6.40;;;19.90;99.90;;;;;;5033031;28;20212;-40
2022/07/21 06:07:04;;;;;;;7.33;6.40;;;19.90;99.90;;;;;;5033623;28;20173;-40
2022/07/21 06:09:29;;;;;;;7.90;6.20;;;20.00;99.90;;;;;;5032977;28;20196;-39
2022/07/21 06:11:55;;;;;;;10.87;6.70;;;20.10;99.90;;;;;;5033137;28;20637;-41
2022/07/21 06:14:20;;;;;;;9.27;6.53;;;20.10;99.90;;;;;;5033038;28;20191;-41
2022/07/21 06:16:46;;;;;;;7.40;6.13;;;20.20;99.90;;;;;;5033037;28;20612;-43
2022/07/21 06:19:12;;;;;;;9.63;6.47;;;20.30;99.90;;;;;;5033381;28;20196;-42
2022/07/21 06:21:37;;;;;;;7.80;6.63;;;20.50;99.90;;;;;;5033336;28;20181;-42
2022/07/21 06:24:03;;;;;;;10.30;5.97;;;20.60;99.90;;;;;;5032978;28;20185;-41
2022/07/21 06:26:28;;;;;;;8.63;5.87;;;20.80;99.90;;;;;;5033187;28;20264;-41
2022/07/21 06:28:54;;;;;;;7.40;5.43;;;20.90;99.90;;;;;;5033263;28;20641;-41
2022/07/21 06:31:20;;;;;;;6.63;5.37;;;21.20;99.90;;;;;;5032854;28;20200;-41
2022/07/21 06:33:46;;;;;;;9.37;5.20;;;21.30;99.90;;;;;;5033391;28;20184;-43
2022/07/21 06:36:11;;;;;;;6.57;5.00;;;21.20;99.90;;;;;;5034101;28;20181;-41
2022/07/21 06:38:37;;;;;;;7.90;4.93;;;21.30;99.90;;;;;;5033258;28;20215;-46
2022/07/21 06:41:03;;;;;;;8.47;5.30;;;21.30;99.90;;;;;;5035640;28;20258;-44
2022/07/21 06:43:28;;;;;;;7.63;5.00;;;21.20;99.90;;;;;;5037092;28;20656;-44
2022/07/21 06:45:55;;;;;;;8.10;4.77;;;21.20;99.90;;;;;;5036846;28;20215;-45
2022/07/21 06:48:24;;;;;;;7.03;4.90;;;21.20;99.90;;;;;;5037349;28;20180;-45
2022/07/21 06:50:51;;;;;;;7.20;5.10;;;21.30;99.90;;;;;;5037227;28;20200;-45
2022/07/21 06:53:17;;;;;;;8.63;4.83;;;21.40;99.90;;;;;;5036778;28;20645;-43
2022/07/21 06:55:43;;;;;;;8.50;5.30;;;21.40;99.90;;;;;;5037303;28;20340;-45
2022/07/21 06:58:10;;;;;;;6.57;4.20;;;21.50;99.90;;;;;;5036774;28;20180;-42
2022/07/21 07:00:36;;;;;;;6.47;4.47;;;21.60;99.90;;;;;;5036731;28;20205;-44
2022/07/21 07:03:02;;;;;;;6.67;4.40;;;21.50;99.90;;;;;;5036720;28;20181;-39
2022/07/21 07:05:29;;;;;;;9.93;4.73;;;21.50;99.90;;;;;;5036306;28;20217;-40
2022/07/21 07:07:55;;;;;;;9.53;4.57;;;21.50;99.90;;;;;;5036073;28;20170;-38
2022/07/21 07:10:21;;;;;;;7.63;4.13;;;21.50;99.90;;;;;;5035933;28;20200;-38
2022/07/21 07:12:46;;;;;;;7.90;4.70;;;21.60;99.90;;;;;;5036290;28;20581;-42
2022/07/21 07:15:12;;;;;;;5.00;4.50;;;21.80;99.90;;;;;;5036010;28;20184;-40
2022/07/21 07:17:37;;;;;;;11.47;4.80;;;22.10;99.90;;;;;;5036129;28;20185;-38
2022/07/21 07:20:06;;;;;;;7.53;5.00;;;22.30;99.90;;;;;;5036238;28;20346;-40
2022/07/21 07:22:32;;;;;;;7.20;4.90;;;22.50;99.90;;;;;;5036075;28;20672;-39
2022/07/21 07:24:57;;;;;;;6.63;4.70;;;22.50;99.90;;;;;;5036183;28;20207;-39
2022/07/21 07:27:23;;;;;;;8.13;5.00;;;22.50;99.90;;;;;;5036733;28;20181;-39
2022/07/21 07:29:49;;;;;;;10.30;5.73;;;22.40;99.90;;;;;;5035302;28;20196;-40
2022/07/21 07:32:14;;;;;;;9.17;5.70;;;22.30;99.90;;;;;;5036581;28;20323;-38
2022/07/21 07:34:40;;;;;;;6.93;5.77;;;22.30;99.90;;;;;;5039619;28;20192;-39
2022/07/21 07:37:05;;;;;;;9.53;5.80;;;22.20;99.90;;;;;;5039342;28;20201;-39
2022/07/21 07:39:31;;;;;;;7.00;5.47;;;22.20;99.90;;;;;;5039717;28;20236;-38
2022/07/21 07:41:57;;;;;;;9.63;5.97;;;22.20;99.90;;;;;;5037133;28;20183;-37
2022/07/21 07:44:22;;;;;;;11.20;6.37;;;22.10;99.90;;;;;;5035717;28;20204;-38
2022/07/21 07:46:49;;;;;;;9.23;5.53;;;22.20;99.90;;;;;;5035647;28;20231;-37
2022/07/21 07:49:15;;;;;;;7.43;5.73;;;22.10;99.90;;;;;;5035890;28;20543;-41
2022/07/21 07:51:40;;;;;;;8.37;5.83;;;22.20;99.90;;;;;;5033655;28;20199;-38
2022/07/21 07:54:06;;;;;;;8.60;5.70;;;22.40;99.90;;;;;;5035250;28;20177;-38
2022/07/21 07:56:32;;;;;;;7.53;5.90;;;22.50;99.90;;;;;;5035567;28;20209;-43
2022/07/21 07:58:58;;;;;;;11.40;6.27;;;22.60;99.90;;;;;;5036331;28;20185;-46
2022/07/21 08:01:23;;;;;;;9.93;6.23;;;22.70;99.90;;;;;;5036107;28;20201;-44
2022/07/21 08:03:49;;;;;;;9.00;5.83;;;22.70;99.90;;;;;;5035816;28;20649;-44
2022/07/21 08:06:15;;;;;;;6.93;6.23;;;22.80;99.90;;;;;;5035675;28;20205;-45
2022/07/21 08:08:41;;;;;;;9.20;6.03;;;22.80;99.90;;;;;;5035417;28;20559;-44
2022/07/21 08:11:06;;;;;;;9.33;5.90;;;23.00;99.90;;;;;;5035344;28;20196;-43
2022/07/21 08:13:32;;;;;;;12.87;6.17;;;23.20;99.90;;;;;;5035686;28;20180;-45
2022/07/21 08:15:58;;;;;;;9.10;6.30;;;23.30;99.90;;;;;;5035351;28;20322;-44
2022/07/21 08:18:24;;;;;;;13.50;6.40;;;23.30;99.90;;;;;;5035095;28;20220;-44
2022/07/21 08:20:50;;;;;;;7.43;6.30;;;23.10;99.90;;;;;;5034897;28;20208;-44
2022/07/21 08:23:16;;;;;;;9.60;5.83;;;23.10;99.90;;;;;;5035526;28;20207;-44
2022/07/21 08:25:42;;;;;;;8.63;5.83;;;23.10;99.90;;;;;;5035163;28;20259;-43
2022/07/21 08:28:09;;;;;;;7.10;6.03;;;23.10;99.90;;;;;;5035347;28;20181;-44
2022/07/21 08:30:35;;;;;;;9.50;5.83;;;23.10;99.90;;;;;;5035199;28;20279;-44
2022/07/21 08:33:03;;;;;;;8.37;5.97;;;23.10;99.90;;;;;;5035933;28;20524;-44
2022/07/21 08:35:29;;;;;;;9.70;6.47;;;23.20;99.90;;;;;;5035408;28;20260;-45
2022/07/21 08:37:59;;;;;;;8.60;6.33;;;23.30;99.90;;;;;;5035555;28;20303;-44
2022/07/21 08:40:26;;;;;;;9.23;5.50;;;23.20;99.90;;;;;;5036152;28;20197;-44
2022/07/21 08:42:53;;;;;;;8.23;5.87;;;23.20;99.90;;;;;;5035715;28;20173;-45
2022/07/21 08:45:19;;;;;;;7.47;5.40;;;23.30;99.90;;;;;;5035447;28;20749;-44
2022/07/21 08:47:45;;;;;;;7.30;4.77;;;23.30;99.90;;;;;;5035098;28;20176;-45
2022/07/21 08:50:11;;;;;;;5.77;5.07;;;23.30;99.90;;;;;;5035380;28;20204;-45
2022/07/21 08:52:36;;;;;;;7.50;4.47;;;23.30;99.90;;;;;;5035258;28;20179;-44
2022/07/21 08:55:03;;;;;;;6.47;4.60;;;23.30;99.90;;;;;;5035415;28;20181;-45
2022/07/21 08:57:28;;;;;;;8.20;5.10;;;23.30;99.90;;;;;;5035395;28;20644;-46
2022/07/21 08:59:54;;;;;;;6.03;4.80;;;23.30;99.90;;;;;;5034876;28;20197;-46
2022/07/21 09:02:33;;;;;;;6.30;3.70;;;23.30;99.90;;;;;;5033230;28;20602;-44
2022/07/21 09:04:58;;;;;;;6.67;4.07;;;23.30;99.90;;;;;;5032656;28;20215;-41
2022/07/21 09:07:24;;;;;;;6.37;4.40;;;23.20;99.90;;;;;;5033849;28;20173;-40
2022/07/21 09:10:01;;;;;;;5.30;4.50;;;23.30;99.90;;;;;;5033988;28;20284;-41
2022/07/21 09:12:28;;;;;;;5.73;4.73;;;23.40;99.90;;;;;;5032560;28;20177;-42
2022/07/21 09:15:13;;;;;;;5.57;4.23;;;23.50;99.90;;;;;;5033962;28;20180;-41
2022/07/21 09:17:39;;;;;;;7.40;4.97;;;23.50;99.90;;;;;;5032533;28;20564;-42
2022/07/21 09:20:24;;;;;;;9.07;4.27;;;23.40;99.90;;;;;;5033883;28;20295;-44
2022/07/21 09:23:09;;;;;;;8.27;4.60;;;23.50;99.90;;;;;;5033718;28;20665;-41
2022/07/21 09:25:46;;;;;;;4.77;4.03;;;23.40;99.90;;;;;;5033860;28;20197;-41
2022/07/21 09:28:30;;;;;;;5.33;4.67;;;23.30;99.90;;;;;;5034159;28;20168;-45
2022/07/21 09:31:07;;;;;;;8.83;4.37;;;23.10;99.90;;;;;;5033939;28;20189;-38
2022/07/21 09:33:40;;;;;;;4.97;4.47;;;23.00;99.90;;;;;;5033750;28;20216;-39
2022/07/21 09:36:10;;;;;;;10.73;5.40;;;22.90;99.90;;;;;;5033572;28;20204;-40
2022/07/21 09:38:58;;;;;;;5.63;4.40;;;22.80;99.90;;;;;;5033563;28;20161;-39
2022/07/21 09:41:26;;;;;;;8.00;5.73;;;22.60;99.90;;;;;;5033429;28;20200;-38
2022/07/21 09:43:54;;;;;;;12.40;5.73;;;22.50;99.90;;;;;;5033667;28;20641;-37
2022/07/21 09:46:24;;;;;;;8.07;5.63;;;22.40;99.90;;;;;;5033352;28;20751;-37
2022/07/21 09:48:51;;;;;;;6.43;5.30;;;22.30;99.90;;;;;;5033582;28;20177;-40
2022/07/21 09:51:35;;;;;;;8.70;5.80;;;22.20;99.90;;;;;;5033134;28;20681;-38
2022/07/21 09:54:10;;;;;;;8.73;6.17;;;22.00;99.90;;;;;;5031991;28;20235;-39
2022/07/21 09:56:38;;;;;;;9.07;5.90;;;22.00;99.90;;;;;;5033177;28;20176;-40
2022/07/21 09:59:07;;;;;;;8.30;5.33;;;22.00;99.90;;;;;;5033395;28;20268;-39
2022/07/21 10:01:32;;;;;;;7.43;5.47;;;21.90;99.90;;;;;;5033283;28;20181;-40
2022/07/21 10:03:59;;;;;;;8.47;5.33;;;21.80;99.90;;;;;;5033168;28;20231;-37
2022/07/21 10:06:27;;;;;;;10.03;5.77;;;21.80;99.90;;;;;;5033194;28;20541;-39
2022/07/21 10:08:58;;;;;;;9.03;6.13;;;21.80;99.90;;;;;;5033481;28;20196;-42
2022/07/21 10:11:26;;;;;;;8.20;6.07;;;21.80;99.90;;;;;;5033309;28;20224;-40
2022/07/21 10:13:52;;;;;;;7.87;5.93;;;21.80;99.90;;;;;;5033146;28;20707;-43
2022/07/21 10:16:18;;;;;;;8.33;5.97;;;21.70;99.90;;;;;;5035339;28;20181;-41
2022/07/21 10:18:55;;;;;;;8.77;5.50;;;21.70;99.90;;;;;;5037018;28;20604;-39
2022/07/21 10:21:51;;;;;;;9.10;6.27;;;21.70;99.90;;;;;;5037422;28;20604;-39
2022/07/21 10:24:17;;;;;;;7.80;5.60;;;21.60;99.90;;;;;;5037219;28;20183;-37
2022/07/21 10:27:03;;;;;;;8.27;6.27;;;21.50;99.90;;;;;;5037180;28;20176;-44
2022/07/21 10:29:47;;;;;;;8.20;6.07;;;21.40;99.90;;;;;;5037064;28;20795;-41
2022/07/21 10:32:13;;;;;;;7.20;5.83;;;21.30;99.90;;;;;;5037097;28;20173;-40
2022/07/21 10:34:39;;;;;;;8.03;6.17;;;21.30;99.90;;;;;;5036983;28;20199;-40
2022/07/21 10:37:04;;;;;;;8.50;5.80;;;21.20;99.90;;;;;;5036675;28;20181;-41
2022/07/21 10:39:35;;;;;;;7.30;5.50;;;21.10;99.90;;;;;;5036592;28;20246;-41
2022/07/21 10:42:14;;;;;;;6.43;4.70;;;20.90;99.90;;;;;;5036592;28;20644;-40
2022/07/21 10:44:41;;;;;;;9.47;5.17;;;20.80;99.90;;;;;;5036858;28;20644;-42
2022/07/21 10:47:14;;;;;;;6.23;5.23;;;20.70;99.90;;;;;;5036787;28;20241;-40
2022/07/21 10:50:01;;;;;;;6.43;4.90;;;20.70;99.90;;;;;;5037057;28;20297;-41
2022/07/21 10:52:35;;;;;;;5.97;4.93;;;20.60;99.90;;;;;;5036734;28;20529;-43
2022/07/21 10:55:10;;;;;;;5.77;5.27;;;20.60;99.90;;;;;;5036634;28;20181;-41
2022/07/21 10:57:46;;;;;;;5.67;4.73;;;20.50;99.90;;;;;;5036616;28;20176;-39
2022/07/21 11:00:27;;;;;;;6.60;4.37;;;20.50;99.90;;;;;;5034992;28;20204;-39
2022/07/21 11:03:02;;;;;;;6.53;5.00;;;20.40;99.90;;;;;;5037302;28;20759;-39
2022/07/21 11:05:30;;;;;;;6.57;4.80;;;20.40;99.90;;;;;;5036034;28;20254;-41
2022/07/21 11:08:17;;;;;;;8.90;4.77;;;20.30;99.90;;;;;;5036109;28;20165;-42
2022/07/21 11:10:49;;;;;;;6.27;4.53;;;20.20;99.90;;;;;;5036346;28;20650;-41
2022/07/21 11:13:16;;;;;;;6.10;3.63;;;20.10;99.90;;;;;;5036130;28;20654;-40
2022/07/21 11:16:00;;;;;;;5.73;4.00;;;20.10;99.90;;;;;;5036112;28;20169;-39
2022/07/21 11:18:28;;;;;;;4.33;3.70;;;20.10;99.90;;;;;;5035938;28;20173;-40
2022/07/21 11:21:10;;;;;;;4.47;3.60;;;20.10;99.90;;;;;;5036056;28;20285;-39
2022/07/21 11:23:49;;;;;;;4.17;3.63;;;20.00;99.90;;;;;;5036118;28;20191;-40
2022/07/21 11:26:23;;;;;;;6.13;4.20;;;20.00;99.90;;;;;;5035797;28;20675;-40
2022/07/21 11:29:04;;;;;;;4.77;3.77;;;20.00;99.90;;;;;;5035618;28;20165;-40
2022/07/21 11:31:30;;;;;;;4.87;3.77;;;20.00;99.90;;;;;;5036174;28;20509;-40
2022/07/21 11:33:55;;;;;;;4.93;3.87;;;20.00;99.90;;;;;;5035695;28;20230;-40
2022/07/21 11:36:30;;;;;;;5.10;3.73;;;19.90;99.90;;;;;;5034576;28;20227;-40
2022/07/21 11:38:58;;;;;;;4.90;3.93;;;19.90;99.90;;;;;;5034453;28;20255;-41
2022/07/21 11:41:23;;;;;;;6.37;4.03;;;19.90;99.90;;;;;;5035918;28;20684;-41
2022/07/21 11:43:49;;;;;;;4.40;4.00;;;19.90;99.90;;;;;;5035730;28;20181;-40
2022/07/21 11:46:14;;;;;;;5.57;4.50;;;19.80;99.90;;;;;;5035461;28;20247;-41
2022/07/21 11:48:40;;;;;;;5.40;4.77;;;19.80;99.90;;;;;;5035569;28;20177;-41
2022/07/21 11:51:06;;;;;;;5.07;4.67;;;19.70;99.90;;;;;;5035703;28;20204;-40
2022/07/21 11:53:32;;;;;;;7.80;4.87;;;19.70;99.90;;;;;;5035700;28;20576;-39
2022/07/21 11:55:58;;;;;;;7.50;5.17;;;19.70;99.90;;;;;;5035483;28;20183;-40
2022/07/21 11:58:24;;;;;;;6.10;5.37;;;19.70;99.90;;;;;;5035244;28;20542;-41
2022/07/21 12:01:04;;;;;;;9.03;5.23;;;19.70;99.90;;;;;;5035827;28;20199;-41
2022/07/21 12:03:30;;;;;;;6.73;5.50;;;19.70;99.90;;;;;;5035556;28;20172;-40
2022/07/21 12:05:56;;;;;;;7.47;5.97;;;19.70;99.90;;;;;;5035477;28;20699;-39
2022/07/21 12:08:23;;;;;;;7.57;6.00;;;19.70;99.90;;;;;;5035298;28;20181;-39
2022/07/21 12:10:49;;;;;;;7.23;6.33;;;19.70;99.90;;;;;;5035054;28;20192;-39
2022/07/21 12:13:14;;;;;;;8.90;6.13;;;19.70;99.90;;;;;;5035018;28;20177;-41
2022/07/21 12:15:41;;;;;;;10.33;6.17;;;19.70;99.90;;;;;;5035235;28;20183;-40
2022/07/21 12:18:27;;;;;;;7.37;5.70;;;19.70;99.90;;;;;;5034884;28;20183;-40
2022/07/21 12:21:05;;;;;;;7.97;6.40;;;19.70;99.90;;;;;;5035066;28;20881;-39
2022/07/21 12:23:32;;;;;;;6.10;5.10;;;19.70;99.90;;;;;;5034858;28;20279;-39
2022/07/21 12:26:00;;;;;;;5.63;4.90;;;19.70;99.90;;;;;;5035129;28;20653;-41
2022/07/21 12:28:49;;;;;;;5.17;4.57;;;19.70;99.90;;;;;;5034583;28;20181;-43
2022/07/21 12:31:21;;;;;;;5.30;3.63;;;19.60;99.90;;;;;;5034412;28;20193;-39
2022/07/21 12:33:48;;;;;;;5.00;3.97;;;19.60;99.90;;;;;;5033863;28;20248;-41
2022/07/21 12:36:14;;;;;;;4.00;3.57;;;19.60;99.90;;;;;;5034855;28;20208;-42
2022/07/21 12:38:46;;;;;;;4.73;3.73;;;19.50;99.90;;;;;;5034450;28;20204;-40
2022/07/21 12:41:17;;;;;;;4.80;3.87;;;19.50;99.90;;;;;;5034626;28;20232;-40
2022/07/21 12:43:52;;;;;;;4.73;3.63;;;19.40;99.90;;;;;;5034819;28;20181;-41
2022/07/21 12:46:19;;;;;;;4.80;3.90;;;19.40;99.90;;;;;;5033057;28;20192;-42
2022/07/21 12:48:46;;;;;;;3.63;3.33;;;19.40;99.90;;;;;;5034364;28;20185;-39
2022/07/21 12:51:19;;;;;;;4.70;3.13;;;19.40;99.90;;;;;;5034530;28;20201;-40